sensor_id;sensor_type;location;lat;lon;timestamp;temperature;humidity
290;DHT22;13193;48.874;9.086;2023-01-08T00:00:49;6.50;1.00
290;DHT22;13193;48.874;9.086;2023-01-08T00:03:15;6.60;1.00
290;DHT22;13193;48.874;9.086;2023-01-08T00:05:41;6.50;1.00
290;DHT22;13193;48.874;9.086;2023-01-08T00:08:09;6.60;1.00
290;DHT22;13193;48.874;9.086;2023-01-08T00:10:36;6.60;1.00
290;DHT22;13193;48.874;9.086;2023-01-08T00:13:02;6.70;1.00
290;DHT22;13193;48.874;9.086;2023-01-08T00:15:28;6.80;1.00
290;DHT22;13193;48.874;9.086;2023-01-08T00:17:55;6.70;1.00
290;DHT22;13193;48.874;9.086;2023-01-08T00:20:20;6.90;1.00
290;DHT22;13193;48.874;9.086;2023-01-08T00:22:50;6.90;1.00
290;DHT22;13193;48.874;9.086;2023-01-08T00:25:16;7.00;1.00
290;DHT22;13193;48.874;9.086;2023-01-08T00:27:43;7.10;1.00
290;DHT22;13193;48.874;9.086;2023-01-08T00:30:09;7.20;1.00
290;DHT22;13193;48.874;9.086;2023-01-08T00:32:35;7.20;1.00
290;DHT22;13193;48.874;9.086;2023-01-08T00:35:01;7.30;1.00
290;DHT22;13193;48.874;9.086;2023-01-08T00:37:27;7.30;1.00
290;DHT22;13193;48.874;9.086;2023-01-08T00:39:53;7.40;1.00
290;DHT22;13193;48.874;9.086;2023-01-08T00:42:19;7.30;1.00
290;DHT22;13193;48.874;9.086;2023-01-08T00:44:44;7.20;1.00
290;DHT22;13193;48.874;9.086;2023-01-08T00:47:10;7.30;1.00
290;DHT22;13193;48.874;9.086;2023-01-08T00:49:36;7.60;1.00
290;DHT22;13193;48.874;9.086;2023-01-08T00:52:01;7.10;1.00
290;DHT22;13193;48.874;9.086;2023-01-08T00:54:27;7.00;1.00
290;DHT22;13193;48.874;9.086;2023-01-08T00:56:56;7.00;1.00
290;DHT22;13193;48.874;9.086;2023-01-08T00:59:22;6.80;1.00
290;DHT22;13193;48.874;9.086;2023-01-08T01:01:48;6.70;1.00
290;DHT22;13193;48.874;9.086;2023-01-08T01:04:13;6.70;1.00
290;DHT22;13193;48.874;9.086;2023-01-08T01:06:40;6.70;1.00
290;DHT22;13193;48.874;9.086;2023-01-08T01:09:06;6.60;1.00
290;DHT22;13193;48.874;9.086;2023-01-08T01:11:32;6.60;1.00
290;DHT22;13193;48.874;9.086;2023-01-08T01:13:58;6.40;1.00
290;DHT22;13193;48.874;9.086;2023-01-08T01:16:24;6.80;1.00
290;DHT22;13193;48.874;9.086;2023-01-08T01:18:49;6.30;1.00
290;DHT22;13193;48.874;9.086;2023-01-08T01:21:25;6.30;1.00
290;DHT22;13193;48.874;9.086;2023-01-08T01:23:56;6.30;1.00
290;DHT22;13193;48.874;9.086;2023-01-08T01:26:24;6.20;1.00
290;DHT22;13193;48.874;9.086;2023-01-08T01:28:53;6.20;1.00
290;DHT22;13193;48.874;9.086;2023-01-08T01:31:19;6.30;1.00
290;DHT22;13193;48.874;9.086;2023-01-08T01:33:46;6.20;1.00
290;DHT22;13193;48.874;9.086;2023-01-08T01:36:13;6.20;1.00
290;DHT22;13193;48.874;9.086;2023-01-08T01:38:46;6.20;1.00
290;DHT22;13193;48.874;9.086;2023-01-08T01:41:35;6.20;1.00
290;DHT22;13193;48.874;9.086;2023-01-08T01:46:59;6.30;1.00
290;DHT22;13193;48.874;9.086;2023-01-08T01:49:26;6.40;1.00
290;DHT22;13193;48.874;9.086;2023-01-08T01:51:54;6.40;1.00
290;DHT22;13193;48.874;9.086;2023-01-08T01:54:21;6.40;1.00
290;DHT22;13193;48.874;9.086;2023-01-08T01:56:47;6.40;1.00
290;DHT22;13193;48.874;9.086;2023-01-08T01:59:13;6.50;1.00
290;DHT22;13193;48.874;9.086;2023-01-08T02:01:40;6.50;1.00
290;DHT22;13193;48.874;9.086;2023-01-08T02:04:11;6.80;1.00
290;DHT22;13193;48.874;9.086;2023-01-08T02:09:47;6.80;1.00
290;DHT22;13193;48.874;9.086;2023-01-08T02:12:25;6.90;1.00
290;DHT22;13193;48.874;9.086;2023-01-08T02:15:11;6.90;1.00
290;DHT22;13193;48.874;9.086;2023-01-08T02:17:57;7.00;1.00
290;DHT22;13193;48.874;9.086;2023-01-08T02:20:54;7.10;1.00
290;DHT22;13193;48.874;9.086;2023-01-08T02:26:18;7.30;1.00
290;DHT22;13193;48.874;9.086;2023-01-08T02:31:26;7.40;1.00
290;DHT22;13193;48.874;9.086;2023-01-08T02:33:52;7.60;1.00
290;DHT22;13193;48.874;9.086;2023-01-08T02:41:56;7.70;1.00
290;DHT22;13193;48.874;9.086;2023-01-08T02:44:52;7.80;1.00
290;DHT22;13193;48.874;9.086;2023-01-08T02:47:29;7.80;1.00
290;DHT22;13193;48.874;9.086;2023-01-08T02:50:24;7.90;1.00
290;DHT22;13193;48.874;9.086;2023-01-08T02:55:30;8.00;1.00
290;DHT22;13193;48.874;9.086;2023-01-08T02:57:58;8.10;1.00
290;DHT22;13193;48.874;9.086;2023-01-08T03:00:24;8.10;1.00
290;DHT22;13193;48.874;9.086;2023-01-08T03:02:54;8.20;1.00
290;DHT22;13193;48.874;9.086;2023-01-08T03:05:27;8.20;1.00
290;DHT22;13193;48.874;9.086;2023-01-08T03:07:53;8.30;1.00
290;DHT22;13193;48.874;9.086;2023-01-08T03:10:21;8.30;1.00
290;DHT22;13193;48.874;9.086;2023-01-08T03:12:53;8.30;1.00
290;DHT22;13193;48.874;9.086;2023-01-08T03:15:41;8.40;1.00
290;DHT22;13193;48.874;9.086;2023-01-08T03:18:12;8.60;1.00
290;DHT22;13193;48.874;9.086;2023-01-08T03:20:40;8.50;1.00
290;DHT22;13193;48.874;9.086;2023-01-08T03:23:08;8.60;1.00
290;DHT22;13193;48.874;9.086;2023-01-08T03:25:38;8.60;1.00
290;DHT22;13193;48.874;9.086;2023-01-08T03:28:09;8.60;1.00
290;DHT22;13193;48.874;9.086;2023-01-08T03:30:39;8.70;1.00
290;DHT22;13193;48.874;9.086;2023-01-08T03:33:06;8.60;1.00
290;DHT22;13193;48.874;9.086;2023-01-08T03:35:37;8.60;1.00
290;DHT22;13193;48.874;9.086;2023-01-08T03:38:11;8.60;1.00
290;DHT22;13193;48.874;9.086;2023-01-08T03:40:42;8.70;1.00
290;DHT22;13193;48.874;9.086;2023-01-08T03:43:09;8.80;1.00
290;DHT22;13193;48.874;9.086;2023-01-08T03:45:36;8.70;1.00
290;DHT22;13193;48.874;9.086;2023-01-08T03:48:03;8.70;1.00
290;DHT22;13193;48.874;9.086;2023-01-08T03:50:30;8.70;1.00
290;DHT22;13193;48.874;9.086;2023-01-08T03:52:57;8.60;1.00
290;DHT22;13193;48.874;9.086;2023-01-08T03:55:22;8.70;1.00
290;DHT22;13193;48.874;9.086;2023-01-08T03:57:48;8.70;1.00
290;DHT22;13193;48.874;9.086;2023-01-08T04:00:14;8.70;1.00
290;DHT22;13193;48.874;9.086;2023-01-08T04:02:40;8.70;1.00
290;DHT22;13193;48.874;9.086;2023-01-08T04:05:09;8.70;1.00
290;DHT22;13193;48.874;9.086;2023-01-08T04:07:35;8.70;1.00
290;DHT22;13193;48.874;9.086;2023-01-08T04:10:01;8.70;1.00
290;DHT22;13193;48.874;9.086;2023-01-08T04:12:27;8.70;1.00
290;DHT22;13193;48.874;9.086;2023-01-08T04:14:52;8.70;1.00
290;DHT22;13193;48.874;9.086;2023-01-08T04:17:18;8.90;1.00
290;DHT22;13193;48.874;9.086;2023-01-08T04:19:44;8.80;1.00
290;DHT22;13193;48.874;9.086;2023-01-08T04:22:10;8.80;1.00
290;DHT22;13193;48.874;9.086;2023-01-08T04:24:37;8.70;1.00
290;DHT22;13193;48.874;9.086;2023-01-08T04:27:03;8.80;1.00
290;DHT22;13193;48.874;9.086;2023-01-08T04:29:28;8.90;1.00
290;DHT22;13193;48.874;9.086;2023-01-08T04:31:54;8.90;1.00
290;DHT22;13193;48.874;9.086;2023-01-08T04:34:20;8.90;1.00
290;DHT22;13193;48.874;9.086;2023-01-08T04:36:45;8.90;1.00
290;DHT22;13193;48.874;9.086;2023-01-08T04:39:11;8.90;1.00
290;DHT22;13193;48.874;9.086;2023-01-08T04:41:36;8.90;1.00
290;DHT22;13193;48.874;9.086;2023-01-08T04:44:02;9.00;1.00
290;DHT22;13193;48.874;9.086;2023-01-08T04:46:28;9.10;1.00
290;DHT22;13193;48.874;9.086;2023-01-08T04:48:53;9.20;1.00
290;DHT22;13193;48.874;9.086;2023-01-08T04:51:19;9.10;1.00
290;DHT22;13193;48.874;9.086;2023-01-08T04:53:46;9.10;1.00
290;DHT22;13193;48.874;9.086;2023-01-08T04:56:12;9.10;1.00
290;DHT22;13193;48.874;9.086;2023-01-08T04:58:38;9.10;1.00
290;DHT22;13193;48.874;9.086;2023-01-08T05:01:34;9.20;1.00
290;DHT22;13193;48.874;9.086;2023-01-08T05:04:02;9.20;1.00
290;DHT22;13193;48.874;9.086;2023-01-08T05:06:29;9.20;1.00
290;DHT22;13193;48.874;9.086;2023-01-08T05:08:56;9.20;1.00
290;DHT22;13193;48.874;9.086;2023-01-08T05:11:22;9.30;1.00
290;DHT22;13193;48.874;9.086;2023-01-08T05:13:49;9.30;1.00
290;DHT22;13193;48.874;9.086;2023-01-08T05:16:15;9.30;1.00
290;DHT22;13193;48.874;9.086;2023-01-08T05:18:44;9.30;1.00
290;DHT22;13193;48.874;9.086;2023-01-08T05:21:10;9.40;1.00
290;DHT22;13193;48.874;9.086;2023-01-08T05:23:37;9.40;1.00
290;DHT22;13193;48.874;9.086;2023-01-08T05:26:04;9.50;1.00
290;DHT22;13193;48.874;9.086;2023-01-08T05:28:31;9.50;1.00
290;DHT22;13193;48.874;9.086;2023-01-08T05:30:57;9.50;1.00
290;DHT22;13193;48.874;9.086;2023-01-08T05:33:24;9.50;1.00
290;DHT22;13193;48.874;9.086;2023-01-08T05:35:50;9.60;1.00
290;DHT22;13193;48.874;9.086;2023-01-08T05:38:16;9.60;1.00
290;DHT22;13193;48.874;9.086;2023-01-08T05:40:41;9.60;1.00
290;DHT22;13193;48.874;9.086;2023-01-08T05:43:07;9.70;1.00
290;DHT22;13193;48.874;9.086;2023-01-08T05:45:33;9.90;1.00
290;DHT22;13193;48.874;9.086;2023-01-08T05:47:59;9.90;1.00
290;DHT22;13193;48.874;9.086;2023-01-08T05:50:28;9.70;1.00
290;DHT22;13193;48.874;9.086;2023-01-08T05:52:54;9.90;1.00
290;DHT22;13193;48.874;9.086;2023-01-08T05:55:19;9.90;1.00
290;DHT22;13193;48.874;9.086;2023-01-08T05:57:45;9.90;1.00
290;DHT22;13193;48.874;9.086;2023-01-08T06:00:11;10.30;1.00
290;DHT22;13193;48.874;9.086;2023-01-08T06:02:37;10.00;1.00
290;DHT22;13193;48.874;9.086;2023-01-08T06:05:03;10.10;1.00
290;DHT22;13193;48.874;9.086;2023-01-08T06:07:30;10.10;1.00
290;DHT22;13193;48.874;9.086;2023-01-08T06:09:56;10.10;1.00
290;DHT22;13193;48.874;9.086;2023-01-08T06:12:21;10.10;1.00
290;DHT22;13193;48.874;9.086;2023-01-08T06:14:47;10.10;1.00
290;DHT22;13193;48.874;9.086;2023-01-08T06:17:13;10.10;1.00
290;DHT22;13193;48.874;9.086;2023-01-08T06:19:40;10.10;1.00
290;DHT22;13193;48.874;9.086;2023-01-08T06:22:05;10.10;1.00
290;DHT22;13193;48.874;9.086;2023-01-08T06:24:31;10.10;1.00
290;DHT22;13193;48.874;9.086;2023-01-08T06:26:57;10.00;1.00
290;DHT22;13193;48.874;9.086;2023-01-08T06:29:22;10.10;1.00
290;DHT22;13193;48.874;9.086;2023-01-08T06:31:48;10.00;1.00
290;DHT22;13193;48.874;9.086;2023-01-08T06:34:13;9.90;1.00
290;DHT22;13193;48.874;9.086;2023-01-08T06:36:39;10.00;1.00
290;DHT22;13193;48.874;9.086;2023-01-08T06:39:06;10.00;1.00
290;DHT22;13193;48.874;9.086;2023-01-08T06:41:33;9.90;1.00
290;DHT22;13193;48.874;9.086;2023-01-08T06:43:59;10.00;1.00
290;DHT22;13193;48.874;9.086;2023-01-08T06:46:25;10.00;1.00
290;DHT22;13193;48.874;9.086;2023-01-08T06:48:51;10.00;1.00
290;DHT22;13193;48.874;9.086;2023-01-08T06:51:17;10.10;1.00
290;DHT22;13193;48.874;9.086;2023-01-08T06:53:42;10.10;1.00
290;DHT22;13193;48.874;9.086;2023-01-08T06:56:08;10.10;1.00
290;DHT22;13193;48.874;9.086;2023-01-08T06:58:36;10.10;1.00
290;DHT22;13193;48.874;9.086;2023-01-08T07:01:02;10.10;1.00
290;DHT22;13193;48.874;9.086;2023-01-08T07:03:28;10.10;1.00
290;DHT22;13193;48.874;9.086;2023-01-08T07:05:55;10.20;1.00
290;DHT22;13193;48.874;9.086;2023-01-08T07:08:21;10.20;1.00
290;DHT22;13193;48.874;9.086;2023-01-08T07:10:46;10.20;1.00
290;DHT22;13193;48.874;9.086;2023-01-08T07:13:12;10.10;1.00
290;DHT22;13193;48.874;9.086;2023-01-08T07:15:39;10.20;1.00
290;DHT22;13193;48.874;9.086;2023-01-08T07:18:07;10.20;1.00
290;DHT22;13193;48.874;9.086;2023-01-08T07:20:33;10.20;1.00
290;DHT22;13193;48.874;9.086;2023-01-08T07:23:08;10.20;1.00
290;DHT22;13193;48.874;9.086;2023-01-08T07:25:34;10.20;1.00
290;DHT22;13193;48.874;9.086;2023-01-08T07:28:00;10.20;1.00
290;DHT22;13193;48.874;9.086;2023-01-08T07:30:26;10.20;1.00
290;DHT22;13193;48.874;9.086;2023-01-08T07:32:52;10.20;1.00
290;DHT22;13193;48.874;9.086;2023-01-08T07:35:17;10.20;1.00
290;DHT22;13193;48.874;9.086;2023-01-08T07:37:43;10.20;1.00
290;DHT22;13193;48.874;9.086;2023-01-08T07:40:10;10.20;1.00
290;DHT22;13193;48.874;9.086;2023-01-08T07:42:36;10.20;1.00
290;DHT22;13193;48.874;9.086;2023-01-08T07:45:02;10.20;1.00
290;DHT22;13193;48.874;9.086;2023-01-08T07:47:27;10.20;1.00
290;DHT22;13193;48.874;9.086;2023-01-08T07:49:53;10.20;1.00
290;DHT22;13193;48.874;9.086;2023-01-08T07:52:19;10.20;1.00
290;DHT22;13193;48.874;9.086;2023-01-08T07:54:44;10.20;1.00
290;DHT22;13193;48.874;9.086;2023-01-08T07:57:11;10.20;1.00
290;DHT22;13193;48.874;9.086;2023-01-08T07:59:38;10.30;1.00
290;DHT22;13193;48.874;9.086;2023-01-08T08:02:04;10.20;1.00
290;DHT22;13193;48.874;9.086;2023-01-08T08:07:25;10.20;1.00
290;DHT22;13193;48.874;9.086;2023-01-08T08:09:53;10.40;1.00
290;DHT22;13193;48.874;9.086;2023-01-08T08:12:32;10.70;1.00
290;DHT22;13193;48.874;9.086;2023-01-08T08:15:00;10.60;1.00
290;DHT22;13193;48.874;9.086;2023-01-08T08:18:01;10.50;1.00
290;DHT22;13193;48.874;9.086;2023-01-08T08:20:28;10.50;1.00
290;DHT22;13193;48.874;9.086;2023-01-08T08:23:13;10.50;1.00
290;DHT22;13193;48.874;9.086;2023-01-08T08:25:51;10.40;1.00
290;DHT22;13193;48.874;9.086;2023-01-08T08:28:32;10.40;1.00
290;DHT22;13193;48.874;9.086;2023-01-08T08:31:18;10.40;1.00
290;DHT22;13193;48.874;9.086;2023-01-08T08:34:13;10.30;1.00
290;DHT22;13193;48.874;9.086;2023-01-08T08:37:26;10.30;1.00
290;DHT22;13193;48.874;9.086;2023-01-08T08:39:54;10.30;1.00
290;DHT22;13193;48.874;9.086;2023-01-08T08:42:20;10.20;1.00
290;DHT22;13193;48.874;9.086;2023-01-08T08:44:45;10.20;1.00
290;DHT22;13193;48.874;9.086;2023-01-08T08:47:17;10.20;1.00
290;DHT22;13193;48.874;9.086;2023-01-08T08:49:43;10.20;1.00
290;DHT22;13193;48.874;9.086;2023-01-08T08:52:09;10.20;1.00
290;DHT22;13193;48.874;9.086;2023-01-08T08:54:35;10.30;1.00
290;DHT22;13193;48.874;9.086;2023-01-08T08:57:02;10.30;1.00
290;DHT22;13193;48.874;9.086;2023-01-08T08:59:28;10.30;1.00
290;DHT22;13193;48.874;9.086;2023-01-08T09:01:54;10.30;1.00
290;DHT22;13193;48.874;9.086;2023-01-08T09:04:20;10.30;1.00
290;DHT22;13193;48.874;9.086;2023-01-08T09:06:47;10.30;1.00
290;DHT22;13193;48.874;9.086;2023-01-08T09:09:13;10.30;1.00
290;DHT22;13193;48.874;9.086;2023-01-08T09:11:39;10.30;1.00
290;DHT22;13193;48.874;9.086;2023-01-08T09:14:05;10.30;1.00
290;DHT22;13193;48.874;9.086;2023-01-08T09:16:31;10.40;1.00
290;DHT22;13193;48.874;9.086;2023-01-08T09:18:57;10.40;1.00
290;DHT22;13193;48.874;9.086;2023-01-08T09:21:23;10.50;1.00
290;DHT22;13193;48.874;9.086;2023-01-08T09:23:48;10.50;1.00
290;DHT22;13193;48.874;9.086;2023-01-08T09:26:14;10.70;1.00
290;DHT22;13193;48.874;9.086;2023-01-08T09:28:40;10.50;1.00
290;DHT22;13193;48.874;9.086;2023-01-08T09:31:06;10.50;1.00
290;DHT22;13193;48.874;9.086;2023-01-08T09:33:33;10.90;1.00
290;DHT22;13193;48.874;9.086;2023-01-08T09:35:58;10.60;1.00
290;DHT22;13193;48.874;9.086;2023-01-08T09:38:24;10.60;1.00
290;DHT22;13193;48.874;9.086;2023-01-08T09:41:02;10.70;1.00
290;DHT22;13193;48.874;9.086;2023-01-08T09:43:31;10.70;1.00
290;DHT22;13193;48.874;9.086;2023-01-08T09:46:02;10.80;1.00
290;DHT22;13193;48.874;9.086;2023-01-08T09:48:31;10.80;1.00
290;DHT22;13193;48.874;9.086;2023-01-08T09:50:58;10.80;1.00
290;DHT22;13193;48.874;9.086;2023-01-08T09:53:24;10.80;1.00
290;DHT22;13193;48.874;9.086;2023-01-08T09:56:12;10.90;1.00
290;DHT22;13193;48.874;9.086;2023-01-08T09:58:43;10.80;1.00
290;DHT22;13193;48.874;9.086;2023-01-08T10:01:13;10.80;1.00
290;DHT22;13193;48.874;9.086;2023-01-08T10:03:53;10.90;1.00
290;DHT22;13193;48.874;9.086;2023-01-08T10:06:22;10.90;1.00
290;DHT22;13193;48.874;9.086;2023-01-08T10:08:49;11.00;1.00
290;DHT22;13193;48.874;9.086;2023-01-08T10:11:16;11.00;1.00
290;DHT22;13193;48.874;9.086;2023-01-08T10:13:47;11.10;1.00
290;DHT22;13193;48.874;9.086;2023-01-08T10:16:23;11.20;1.00
290;DHT22;13193;48.874;9.086;2023-01-08T10:18:51;11.20;1.00
290;DHT22;13193;48.874;9.086;2023-01-08T10:21:17;11.30;1.00
290;DHT22;13193;48.874;9.086;2023-01-08T10:23:52;11.40;1.00
290;DHT22;13193;48.874;9.086;2023-01-08T10:26:29;11.50;1.00
290;DHT22;13193;48.874;9.086;2023-01-08T10:29:15;11.50;1.00
290;DHT22;13193;48.874;9.086;2023-01-08T10:31:50;11.60;1.00
290;DHT22;13193;48.874;9.086;2023-01-08T10:34:26;11.60;1.00
290;DHT22;13193;48.874;9.086;2023-01-08T10:36:53;11.70;1.00
290;DHT22;13193;48.874;9.086;2023-01-08T10:39:24;11.90;1.00
290;DHT22;13193;48.874;9.086;2023-01-08T10:41:55;11.90;1.00
290;DHT22;13193;48.874;9.086;2023-01-08T10:44:23;11.90;1.00
290;DHT22;13193;48.874;9.086;2023-01-08T10:46:53;12.00;1.00
290;DHT22;13193;48.874;9.086;2023-01-08T10:49:37;12.10;1.00
290;DHT22;13193;48.874;9.086;2023-01-08T10:52:04;12.10;1.00
290;DHT22;13193;48.874;9.086;2023-01-08T10:54:34;12.00;1.00
290;DHT22;13193;48.874;9.086;2023-01-08T10:57:00;12.10;1.00
290;DHT22;13193;48.874;9.086;2023-01-08T10:59:26;12.10;1.00
290;DHT22;13193;48.874;9.086;2023-01-08T11:01:55;12.20;1.00
290;DHT22;13193;48.874;9.086;2023-01-08T11:06:52;12.20;1.00
290;DHT22;13193;48.874;9.086;2023-01-08T11:09:32;12.30;1.00
290;DHT22;13193;48.874;9.086;2023-01-08T11:11:59;12.30;1.00
290;DHT22;13193;48.874;9.086;2023-01-08T11:14:33;12.50;1.00
290;DHT22;13193;48.874;9.086;2023-01-08T11:17:07;12.50;1.00
290;DHT22;13193;48.874;9.086;2023-01-08T11:19:34;12.50;1.00
290;DHT22;13193;48.874;9.086;2023-01-08T11:22:22;12.60;1.00
290;DHT22;13193;48.874;9.086;2023-01-08T11:24:50;12.60;1.00
290;DHT22;13193;48.874;9.086;2023-01-08T11:27:28;12.60;1.00
290;DHT22;13193;48.874;9.086;2023-01-08T11:35:24;12.70;1.00
290;DHT22;13193;48.874;9.086;2023-01-08T11:37:51;12.70;1.00
290;DHT22;13193;48.874;9.086;2023-01-08T11:41:08;12.80;1.00
290;DHT22;13193;48.874;9.086;2023-01-08T11:46:33;12.80;1.00
290;DHT22;13193;48.874;9.086;2023-01-08T11:57:43;12.90;1.00
290;DHT22;13193;48.874;9.086;2023-01-08T12:08:48;12.90;1.00
290;DHT22;13193;48.874;9.086;2023-01-08T12:31:27;13.00;1.00
290;DHT22;13193;48.874;9.086;2023-01-08T12:36:36;13.00;1.00
290;DHT22;13193;48.874;9.086;2023-01-08T12:39:13;13.10;1.00
290;DHT22;13193;48.874;9.086;2023-01-08T12:41:42;13.10;1.00
290;DHT22;13193;48.874;9.086;2023-01-08T12:44:10;13.20;1.00
290;DHT22;13193;48.874;9.086;2023-01-08T12:46:41;13.20;1.00
290;DHT22;13193;48.874;9.086;2023-01-08T12:49:12;13.10;1.00
290;DHT22;13193;48.874;9.086;2023-01-08T12:51:38;13.00;1.00
290;DHT22;13193;48.874;9.086;2023-01-08T12:59:35;13.00;1.00
290;DHT22;13193;48.874;9.086;2023-01-08T13:02:14;12.90;1.00
290;DHT22;13193;48.874;9.086;2023-01-08T13:04:44;12.90;1.00
290;DHT22;13193;48.874;9.086;2023-01-08T13:07:22;12.90;1.00
290;DHT22;13193;48.874;9.086;2023-01-08T13:09:56;12.90;1.00
290;DHT22;13193;48.874;9.086;2023-01-08T13:12:37;12.90;1.00
290;DHT22;13193;48.874;9.086;2023-01-08T13:15:06;12.80;1.00
290;DHT22;13193;48.874;9.086;2023-01-08T13:17:32;12.80;1.00
290;DHT22;13193;48.874;9.086;2023-01-08T13:20:03;12.80;1.00
290;DHT22;13193;48.874;9.086;2023-01-08T13:22:34;12.70;1.00
290;DHT22;13193;48.874;9.086;2023-01-08T13:27:39;12.70;1.00
290;DHT22;13193;48.874;9.086;2023-01-08T13:30:38;12.80;1.00
290;DHT22;13193;48.874;9.086;2023-01-08T13:36:27;12.90;1.00
290;DHT22;13193;48.874;9.086;2023-01-08T13:41:36;13.00;1.00
290;DHT22;13193;48.874;9.086;2023-01-08T13:44:23;13.00;1.00
290;DHT22;13193;48.874;9.086;2023-01-08T13:46:59;12.90;1.00
290;DHT22;13193;48.874;9.086;2023-01-08T13:49:35;12.90;1.00
290;DHT22;13193;48.874;9.086;2023-01-08T13:52:43;13.00;1.00
290;DHT22;13193;48.874;9.086;2023-01-08T13:55:31;13.00;1.00
290;DHT22;13193;48.874;9.086;2023-01-08T13:58:00;13.00;1.00
290;DHT22;13193;48.874;9.086;2023-01-08T14:03:30;12.90;1.00
290;DHT22;13193;48.874;9.086;2023-01-08T14:08:58;12.90;1.00
290;DHT22;13193;48.874;9.086;2023-01-08T14:11:43;12.80;1.00
290;DHT22;13193;48.874;9.086;2023-01-08T14:14:15;12.80;1.00
290;DHT22;13193;48.874;9.086;2023-01-08T14:16:42;12.80;1.00
290;DHT22;13193;48.874;9.086;2023-01-08T14:19:10;12.90;1.00
290;DHT22;13193;48.874;9.086;2023-01-08T14:21:37;13.00;1.00
290;DHT22;13193;48.874;9.086;2023-01-08T14:24:03;13.00;1.00
290;DHT22;13193;48.874;9.086;2023-01-08T14:26:34;13.10;1.00
290;DHT22;13193;48.874;9.086;2023-01-08T14:29:03;13.00;1.00
290;DHT22;13193;48.874;9.086;2023-01-08T14:31:29;13.00;1.00
290;DHT22;13193;48.874;9.086;2023-01-08T14:33:56;13.00;1.00
290;DHT22;13193;48.874;9.086;2023-01-08T14:36:28;13.00;1.00
290;DHT22;13193;48.874;9.086;2023-01-08T14:38:53;13.10;1.00
290;DHT22;13193;48.874;9.086;2023-01-08T14:41:33;13.10;1.00
290;DHT22;13193;48.874;9.086;2023-01-08T14:44:19;13.10;1.00
290;DHT22;13193;48.874;9.086;2023-01-08T14:46:45;13.10;1.00
290;DHT22;13193;48.874;9.086;2023-01-08T14:49:29;13.10;1.00
290;DHT22;13193;48.874;9.086;2023-01-08T14:51:58;13.00;1.00
290;DHT22;13193;48.874;9.086;2023-01-08T14:54:30;13.00;1.00
290;DHT22;13193;48.874;9.086;2023-01-08T14:56:59;12.90;1.00
290;DHT22;13193;48.874;9.086;2023-01-08T14:59:32;12.80;1.00
290;DHT22;13193;48.874;9.086;2023-01-08T15:02:00;12.60;1.00
290;DHT22;13193;48.874;9.086;2023-01-08T15:04:28;12.60;1.00
290;DHT22;13193;48.874;9.086;2023-01-08T15:09:32;12.40;1.00
290;DHT22;13193;48.874;9.086;2023-01-08T15:12:01;12.40;1.00
290;DHT22;13193;48.874;9.086;2023-01-08T15:14:31;12.30;1.00
290;DHT22;13193;48.874;9.086;2023-01-08T15:17:09;12.20;1.00
290;DHT22;13193;48.874;9.086;2023-01-08T15:19:41;12.10;1.00
290;DHT22;13193;48.874;9.086;2023-01-08T15:22:21;12.10;1.00
290;DHT22;13193;48.874;9.086;2023-01-08T15:25:00;12.00;1.00
290;DHT22;13193;48.874;9.086;2023-01-08T15:27:27;11.70;1.00
290;DHT22;13193;48.874;9.086;2023-01-08T15:29:54;11.70;1.00
290;DHT22;13193;48.874;9.086;2023-01-08T15:32:46;11.60;1.00
290;DHT22;13193;48.874;9.086;2023-01-08T15:35:17;11.50;1.00
290;DHT22;13193;48.874;9.086;2023-01-08T15:37:43;11.30;1.00
290;DHT22;13193;48.874;9.086;2023-01-08T15:40:10;11.30;1.00
290;DHT22;13193;48.874;9.086;2023-01-08T15:42:36;11.20;1.00
290;DHT22;13193;48.874;9.086;2023-01-08T15:45:26;11.30;1.00
290;DHT22;13193;48.874;9.086;2023-01-08T15:47:52;11.20;1.00
290;DHT22;13193;48.874;9.086;2023-01-08T15:50:18;11.20;1.00
290;DHT22;13193;48.874;9.086;2023-01-08T15:52:45;11.20;1.00
290;DHT22;13193;48.874;9.086;2023-01-08T15:55:17;11.10;1.00
290;DHT22;13193;48.874;9.086;2023-01-08T15:57:46;11.10;1.00
290;DHT22;13193;48.874;9.086;2023-01-08T16:00:16;11.00;1.00
290;DHT22;13193;48.874;9.086;2023-01-08T16:02:48;11.00;1.00
290;DHT22;13193;48.874;9.086;2023-01-08T16:05:17;11.00;1.00
290;DHT22;13193;48.874;9.086;2023-01-08T16:08:09;11.00;1.00
290;DHT22;13193;48.874;9.086;2023-01-08T16:10:35;10.90;1.00
290;DHT22;13193;48.874;9.086;2023-01-08T16:13:01;10.90;1.00
290;DHT22;13193;48.874;9.086;2023-01-08T16:15:29;10.80;1.00
290;DHT22;13193;48.874;9.086;2023-01-08T16:17:57;11.00;1.00
290;DHT22;13193;48.874;9.086;2023-01-08T16:20:23;11.00;1.00
290;DHT22;13193;48.874;9.086;2023-01-08T16:22:50;11.00;1.00
290;DHT22;13193;48.874;9.086;2023-01-08T16:25:16;11.00;1.00
290;DHT22;13193;48.874;9.086;2023-01-08T16:27:41;11.00;1.00
290;DHT22;13193;48.874;9.086;2023-01-08T16:30:12;11.10;1.00
290;DHT22;13193;48.874;9.086;2023-01-08T16:32:39;11.00;1.00
290;DHT22;13193;48.874;9.086;2023-01-08T16:35:06;11.00;1.00
290;DHT22;13193;48.874;9.086;2023-01-08T16:37:31;10.90;1.00
290;DHT22;13193;48.874;9.086;2023-01-08T16:39:58;10.90;1.00
290;DHT22;13193;48.874;9.086;2023-01-08T16:42:24;10.90;1.00
290;DHT22;13193;48.874;9.086;2023-01-08T16:44:51;10.90;1.00
290;DHT22;13193;48.874;9.086;2023-01-08T16:47:17;10.90;1.00
290;DHT22;13193;48.874;9.086;2023-01-08T16:49:42;10.90;1.00
290;DHT22;13193;48.874;9.086;2023-01-08T16:52:08;10.80;1.00
290;DHT22;13193;48.874;9.086;2023-01-08T16:54:34;10.90;1.00
290;DHT22;13193;48.874;9.086;2023-01-08T16:57:00;10.90;1.00
290;DHT22;13193;48.874;9.086;2023-01-08T16:59:25;10.80;1.00
290;DHT22;13193;48.874;9.086;2023-01-08T17:01:52;10.80;1.00
290;DHT22;13193;48.874;9.086;2023-01-08T17:04:18;10.80;1.00
290;DHT22;13193;48.874;9.086;2023-01-08T17:06:43;10.80;1.00
290;DHT22;13193;48.874;9.086;2023-01-08T17:09:11;10.90;1.00
290;DHT22;13193;48.874;9.086;2023-01-08T17:11:38;10.90;1.00
290;DHT22;13193;48.874;9.086;2023-01-08T17:14:03;10.90;1.00
290;DHT22;13193;48.874;9.086;2023-01-08T17:16:29;10.90;1.00
290;DHT22;13193;48.874;9.086;2023-01-08T17:18:55;10.90;1.00
290;DHT22;13193;48.874;9.086;2023-01-08T17:21:22;10.80;1.00
290;DHT22;13193;48.874;9.086;2023-01-08T17:23:50;10.80;1.00
290;DHT22;13193;48.874;9.086;2023-01-08T17:26:16;10.70;1.00
290;DHT22;13193;48.874;9.086;2023-01-08T17:28:42;10.70;1.00
290;DHT22;13193;48.874;9.086;2023-01-08T17:31:11;10.80;1.00
290;DHT22;13193;48.874;9.086;2023-01-08T17:33:37;10.80;1.00
290;DHT22;13193;48.874;9.086;2023-01-08T17:36:14;10.80;1.00
290;DHT22;13193;48.874;9.086;2023-01-08T17:38:41;10.70;1.00
290;DHT22;13193;48.874;9.086;2023-01-08T17:41:08;10.70;1.00
290;DHT22;13193;48.874;9.086;2023-01-08T17:43:37;10.70;1.00
290;DHT22;13193;48.874;9.086;2023-01-08T17:46:06;10.70;1.00
290;DHT22;13193;48.874;9.086;2023-01-08T17:48:33;10.70;1.00
290;DHT22;13193;48.874;9.086;2023-01-08T17:51:04;10.70;1.00
290;DHT22;13193;48.874;9.086;2023-01-08T17:53:30;10.70;1.00
290;DHT22;13193;48.874;9.086;2023-01-08T17:55:57;10.70;1.00
290;DHT22;13193;48.874;9.086;2023-01-08T17:58:24;10.60;1.00
290;DHT22;13193;48.874;9.086;2023-01-08T18:00:50;10.60;1.00
290;DHT22;13193;48.874;9.086;2023-01-08T18:03:15;10.60;1.00
290;DHT22;13193;48.874;9.086;2023-01-08T18:05:41;10.50;1.00
290;DHT22;13193;48.874;9.086;2023-01-08T18:08:07;10.50;1.00
290;DHT22;13193;48.874;9.086;2023-01-08T18:10:32;10.40;1.00
290;DHT22;13193;48.874;9.086;2023-01-08T18:12:58;10.30;1.00
290;DHT22;13193;48.874;9.086;2023-01-08T18:15:23;10.30;1.00